createdAt,value
2018-05-14T00:00:46.213Z,99802.66
2018-05-14T00:03:13.597Z,99792.28
2018-05-14T00:05:41.002Z,99791.80
2018-05-14T00:08:08.391Z,99787.63
2018-05-14T00:10:35.811Z,99785.95
2018-05-14T00:13:03.204Z,99786.75
2018-05-14T00:15:30.590Z,99796.16
2018-05-14T00:17:57.971Z,99791.72
2018-05-14T00:20:25.455Z,99783.66
2018-05-14T00:22:52.835Z,99770.25
2018-05-14T00:25:20.221Z,99768.70
2018-05-14T00:27:47.705Z,99763.16
2018-05-14T00:30:14.979Z,99769.19
2018-05-14T00:32:42.368Z,99775.38
2018-05-14T00:35:09.831Z,99784.20
2018-05-14T00:37:37.207Z,99790.06
2018-05-14T00:40:04.631Z,99795.96
2018-05-14T00:42:32.003Z,99801.38
2018-05-14T00:44:59.398Z,99797.84
2018-05-14T00:47:26.831Z,99800.04
2018-05-14T00:49:54.205Z,99786.86
2018-05-14T00:52:21.592Z,99787.63
2018-05-14T00:55:00.858Z,99793.66
2018-05-14T00:57:28.227Z,99783.79
2018-05-14T00:59:55.610Z,99778.47
2018-05-14T01:02:23.012Z,99773.88
2018-05-14T01:04:50.395Z,99774.91
2018-05-14T01:07:17.787Z,99773.32
2018-05-14T01:09:45.171Z,99770.02
2018-05-14T01:12:12.569Z,99768.22
2018-05-14T01:14:39.943Z,99777.61
2018-05-14T01:17:07.337Z,99771.94
2018-05-14T01:19:34.714Z,99772.31
2018-05-14T01:22:02.091Z,99766.84
2018-05-14T01:24:29.463Z,99766.97
2018-05-14T01:26:56.860Z,99766.79
2018-05-14T01:29:24.236Z,99766.46
2018-05-14T01:31:51.628Z,99764.84
2018-05-14T01:34:19.018Z,99750.63
2018-05-14T01:36:46.417Z,99750.55
2018-05-14T01:39:13.785Z,99752.91
2018-05-14T01:41:41.181Z,99743.68
2018-05-14T01:44:08.584Z,99734.04
2018-05-14T01:46:35.971Z,99732.88
2018-05-14T01:49:03.351Z,99722.48
2018-05-14T01:51:30.744Z,99729.22
2018-05-14T01:53:58.121Z,99727.75
2018-05-14T01:56:25.513Z,99725.84
2018-05-14T01:58:52.903Z,99721.52
2018-05-14T02:01:20.315Z,99715.47
2018-05-14T02:03:47.709Z,99713.71
2018-05-14T02:06:15.110Z,99713.02
2018-05-14T02:08:42.499Z,99710.43
2018-05-14T02:11:10.800Z,99706.59
2018-05-14T02:13:38.183Z,99707.45
2018-05-14T02:16:05.592Z,99702.57
2018-05-14T02:18:32.981Z,99692.67
2018-05-14T02:21:00.363Z,99695.63
2018-05-14T02:23:27.752Z,99694.98
2018-05-14T02:25:55.149Z,99681.19
2018-05-14T02:28:22.545Z,99687.84
2018-05-14T02:30:49.928Z,99682.01
2018-05-14T02:33:17.864Z,99688.45
2018-05-14T02:35:45.266Z,99693.54
2018-05-14T02:38:12.643Z,99696.28
2018-05-14T02:40:40.046Z,99689.20
2018-05-14T02:43:07.447Z,99695.77
2018-05-14T02:45:34.852Z,99702.20
2018-05-14T02:48:02.249Z,99687.63
2018-05-14T02:50:29.654Z,99675.19
2018-05-14T02:52:57.048Z,99672.91
2018-05-14T02:55:24.437Z,99678.45
2018-05-14T02:57:51.828Z,99667.57
2018-05-14T03:00:19.207Z,99672.20
2018-05-14T03:02:46.596Z,99678.41
2018-05-14T03:05:13.973Z,99688.26
2018-05-14T03:07:41.370Z,99680.58
2018-05-14T03:10:08.759Z,99677.16
2018-05-14T03:12:36.169Z,99669.95
2018-05-14T03:15:03.566Z,99667.55
2018-05-14T03:17:30.957Z,99661.22
2018-05-14T03:19:58.347Z,99662.57
2018-05-14T03:22:25.736Z,99673.97
2018-05-14T03:24:53.132Z,99684.48
2018-05-14T03:27:20.579Z,99695.42
2018-05-14T03:29:47.968Z,99681.33
2018-05-14T03:32:15.359Z,99683.43
2018-05-14T03:34:42.744Z,99685.60
2018-05-14T03:37:10.161Z,99699.88
2018-05-14T03:39:37.555Z,99709.58
2018-05-14T03:42:04.951Z,99710.36
2018-05-14T03:44:32.324Z,99719.80
2018-05-14T03:46:59.719Z,99722.75
2018-05-14T03:49:27.120Z,99727.95
2018-05-14T03:51:54.507Z,99734.89
2018-05-14T03:54:21.909Z,99737.49
2018-05-14T03:56:49.302Z,99739.10
2018-05-14T03:59:28.330Z,99748.84
2018-05-14T04:02:20.991Z,99745.03
2018-05-14T04:05:00.212Z,99745.73
2018-05-14T04:07:27.621Z,99749.86
2018-05-14T04:09:55.028Z,99754.27
2018-05-14T04:12:22.437Z,99751.46
2018-05-14T04:14:49.839Z,99749.13
2018-05-14T04:17:17.232Z,99746.99
2018-05-14T04:19:44.616Z,99751.89
2018-05-14T04:22:12.003Z,99754.63
2018-05-14T04:24:39.387Z,99758.71
2018-05-14T04:27:06.777Z,99751.81
2018-05-14T04:29:34.164Z,99755.57
2018-05-14T04:32:01.553Z,99754.98
2018-05-14T04:34:28.962Z,99754.98
2018-05-14T04:36:56.345Z,99772.63
2018-05-14T04:39:23.830Z,99765.93
2018-05-14T04:41:51.232Z,99765.02
2018-05-14T04:44:18.617Z,99772.06
2018-05-14T04:46:46.906Z,99774.82
2018-05-14T04:49:14.297Z,99775.28
2018-05-14T04:51:41.679Z,99766.67
2018-05-14T04:54:09.073Z,99773.20
2018-05-14T04:56:36.507Z,99780.37
2018-05-14T04:59:03.921Z,99785.03
2018-05-14T05:01:31.325Z,99779.21
2018-05-14T05:03:58.703Z,99778.08
2018-05-14T05:06:26.100Z,99787.25
2018-05-14T05:08:53.532Z,99788.25
2018-05-14T05:11:21.043Z,99789.17
2018-05-14T05:13:48.427Z,99794.89
2018-05-14T05:16:15.809Z,99800.85
2018-05-14T05:18:43.228Z,99797.84
2018-05-14T05:21:11.271Z,99792.54
2018-05-14T05:23:38.659Z,99796.48
2018-05-14T05:26:06.053Z,99789.22
2018-05-14T05:28:33.439Z,99795.48
2018-05-14T05:31:00.830Z,99802.03
2018-05-14T05:33:28.217Z,99803.58
2018-05-14T05:38:29.431Z,99799.56
2018-05-14T05:40:56.816Z,99809.59
2018-05-14T05:43:24.226Z,99808.49
2018-05-14T05:45:51.611Z,99806.69
2018-05-14T05:48:19.017Z,99806.58
2018-05-14T05:50:46.404Z,99807.45
2018-05-14T05:53:13.792Z,99805.95
2018-05-14T05:55:41.191Z,99809.03
2018-05-14T05:58:08.584Z,99804.36
2018-05-14T06:00:35.992Z,99802.22
2018-05-14T06:03:03.367Z,99816.98
2018-05-14T06:05:30.767Z,99831.13
2018-05-14T06:07:58.166Z,99826.64
2018-05-14T06:10:25.552Z,99823.83
2018-05-14T06:12:52.939Z,99830.22
2018-05-14T06:15:20.339Z,99832.59
2018-05-14T06:17:47.743Z,99841.30
2018-05-14T06:20:15.139Z,99838.27
2018-05-14T06:22:42.546Z,99846.88
2018-05-14T06:25:09.931Z,99852.23
2018-05-14T06:27:37.319Z,99849.28
2018-05-14T06:30:04.712Z,99852.92
2018-05-14T06:32:32.190Z,99839.89
2018-05-14T06:34:59.587Z,99839.50
2018-05-14T06:37:26.976Z,99829.77
2018-05-14T06:39:54.373Z,99835.03
2018-05-14T06:42:21.776Z,99851.06
2018-05-14T06:44:49.176Z,99855.39
2018-05-14T06:47:16.640Z,99862.03
2018-05-14T06:49:44.119Z,99858.27
2018-05-14T06:52:11.416Z,99859.22
2018-05-14T06:54:38.803Z,99861.25
2018-05-14T06:57:06.197Z,99856.36
2018-05-14T06:59:33.579Z,99863.19
2018-05-14T07:02:00.959Z,99861.77
2018-05-14T07:04:28.370Z,99857.75
2018-05-14T07:06:55.803Z,99856.72
2018-05-14T07:09:23.231Z,99864.41
2018-05-14T07:11:50.605Z,99868.00
2018-05-14T07:14:17.998Z,99866.80
2018-05-14T07:16:45.387Z,99863.62
2018-05-14T07:19:12.856Z,99864.80
2018-05-14T07:21:40.166Z,99863.32
2018-05-14T07:24:07.562Z,99862.09
2018-05-14T07:26:34.959Z,99860.79
2018-05-14T07:29:02.510Z,99866.20
2018-05-14T07:31:29.908Z,99864.94
2018-05-14T07:33:57.316Z,99868.30
2018-05-14T07:36:24.707Z,99875.06
2018-05-14T07:38:52.111Z,99873.34
2018-05-14T07:41:19.504Z,99878.02
2018-05-14T07:43:46.907Z,99888.52
2018-05-14T07:46:14.298Z,99880.14
2018-05-14T07:48:41.693Z,99890.91
2018-05-14T07:51:09.071Z,99892.06
2018-05-14T07:53:36.515Z,99899.31
2018-05-14T07:56:03.899Z,99886.01
2018-05-14T07:58:31.308Z,99888.45
2018-05-14T08:00:58.689Z,99882.13
2018-05-14T08:03:26.087Z,99876.52
2018-05-14T08:05:53.467Z,99872.91
2018-05-14T08:08:20.863Z,99883.58
2018-05-14T08:10:48.253Z,99893.42
2018-05-14T08:13:15.652Z,99881.73
2018-05-14T08:15:43.064Z,99884.08
2018-05-14T08:18:10.452Z,99881.28
2018-05-14T08:20:37.840Z,99884.58
2018-05-14T08:23:05.227Z,99888.06
2018-05-14T08:25:32.613Z,99887.20
2018-05-14T08:27:59.995Z,99887.55
2018-05-14T08:30:27.387Z,99883.52
2018-05-14T08:32:54.788Z,99882.05
2018-05-14T08:35:22.177Z,99882.67
2018-05-14T08:37:49.579Z,99882.27
2018-05-14T08:40:16.963Z,99882.25
2018-05-14T08:42:44.373Z,99881.38
2018-05-14T08:45:11.765Z,99890.06
2018-05-14T08:47:39.151Z,99893.83
2018-05-14T08:50:06.545Z,99899.45
2018-05-14T08:52:33.930Z,99904.55
2018-05-14T08:55:01.316Z,99901.34
2018-05-14T08:57:28.718Z,99905.91
2018-05-14T08:59:56.108Z,99915.06
2018-05-14T09:02:23.495Z,99916.86
2018-05-14T09:04:50.905Z,99913.00
2018-05-14T09:07:18.276Z,99917.88
2018-05-14T09:09:45.680Z,99917.45
2018-05-14T09:12:13.061Z,99916.41
2018-05-14T09:14:40.462Z,99930.77
2018-05-14T09:17:07.852Z,99933.69
2018-05-14T09:19:35.361Z,99939.73
2018-05-14T09:22:02.634Z,99942.08
2018-05-14T09:24:30.040Z,99941.21
2018-05-14T09:26:57.420Z,99930.47
2018-05-14T09:29:24.827Z,99939.89
2018-05-14T09:31:52.605Z,99938.05
2018-05-14T09:34:19.993Z,99942.29
2018-05-14T09:36:47.376Z,99936.88
2018-05-14T09:39:14.797Z,99932.55
2018-05-14T09:41:42.195Z,99922.61
2018-05-14T09:44:09.589Z,99927.76
2018-05-14T09:46:36.993Z,99924.45
2018-05-14T09:49:04.400Z,99921.67
2018-05-14T09:51:31.796Z,99921.44
2018-05-14T09:53:59.191Z,99927.28
2018-05-14T09:56:26.578Z,99927.87
2018-05-14T09:58:53.967Z,99923.89
2018-05-14T10:01:21.351Z,99918.05
2018-05-14T10:03:48.750Z,99916.80
2018-05-14T10:06:16.139Z,99911.20
2018-05-14T10:08:43.536Z,99912.91
2018-05-14T10:11:10.934Z,99911.38
2018-05-14T10:13:38.936Z,99908.98
2018-05-14T10:16:06.366Z,99910.50
2018-05-14T10:18:33.755Z,99905.80
2018-05-14T10:21:01.160Z,99901.66
2018-05-14T10:23:28.555Z,99901.87
2018-05-14T10:25:55.949Z,99901.09
2018-05-14T10:28:23.344Z,99900.44
2018-05-14T10:30:50.732Z,99900.53
2018-05-14T10:33:18.197Z,99893.86
2018-05-14T10:35:45.585Z,99892.72
2018-05-14T10:38:12.960Z,99892.80
2018-05-14T10:40:40.390Z,99887.26
2018-05-14T10:43:07.745Z,99889.39
2018-05-14T10:45:35.128Z,99888.45
2018-05-14T10:48:02.518Z,99882.64
2018-05-14T10:50:29.903Z,99872.41
2018-05-14T10:52:57.299Z,99877.27
2018-05-14T10:55:24.662Z,99872.83
2018-05-14T10:57:52.039Z,99876.07
2018-05-14T11:00:19.422Z,99872.94
2018-05-14T11:02:47.002Z,99869.97
2018-05-14T11:05:14.375Z,99863.98
2018-05-14T11:07:41.844Z,99865.90
2018-05-14T11:10:09.226Z,99864.91
2018-05-14T11:12:36.604Z,99859.59
2018-05-14T11:15:03.988Z,99860.84
2018-05-14T11:17:31.388Z,99859.80
2018-05-14T11:19:58.772Z,99860.11
2018-05-14T11:22:26.154Z,99855.53
2018-05-14T11:24:53.553Z,99856.16
2018-05-14T11:27:21.821Z,99859.80
2018-05-14T11:29:49.155Z,99849.37
2018-05-14T11:32:16.540Z,99852.44
2018-05-14T11:34:43.931Z,99850.88
2018-05-14T11:37:11.311Z,99848.02
2018-05-14T11:39:38.707Z,99847.30
2018-05-14T11:42:06.091Z,99850.41
2018-05-14T11:44:33.477Z,99852.94
2018-05-14T11:47:00.854Z,99853.81
2018-05-14T11:49:28.246Z,99850.02
2018-05-14T11:51:55.616Z,99842.60
2018-05-14T11:54:23.000Z,99854.02
2018-05-14T11:56:50.396Z,99845.02
2018-05-14T11:59:17.775Z,99843.65
2018-05-14T12:01:45.155Z,99847.11
2018-05-14T12:04:12.540Z,99844.09
2018-05-14T12:06:39.934Z,99841.81
2018-05-14T12:09:07.324Z,99837.53
2018-05-14T12:11:34.703Z,99844.72
2018-05-14T12:14:02.090Z,99838.09
2018-05-14T12:16:30.416Z,99839.31
2018-05-14T12:18:57.792Z,99835.88
2018-05-14T12:21:25.172Z,99835.56
2018-05-14T12:23:52.573Z,99834.58
2018-05-14T12:26:19.957Z,99834.16
2018-05-14T12:28:47.340Z,99821.57
2018-05-14T12:31:14.732Z,99817.34
2018-05-14T12:33:42.106Z,99823.27
2018-05-14T12:36:09.509Z,99816.99
2018-05-14T12:38:36.894Z,99813.62
2018-05-14T12:41:04.275Z,99811.67
2018-05-14T12:43:31.687Z,99806.69
2018-05-14T12:45:59.125Z,99803.44
2018-05-14T12:48:27.125Z,99799.36
2018-05-14T12:50:54.524Z,99796.18
2018-05-14T12:53:21.904Z,99792.12
2018-05-14T12:55:49.299Z,99790.42
2018-05-14T12:58:16.672Z,99789.66
2018-05-14T13:00:44.059Z,99781.00
2018-05-14T13:03:11.450Z,99780.54
2018-05-14T13:05:39.659Z,99774.86
2018-05-14T13:08:07.639Z,99766.90
2018-05-14T13:10:35.027Z,99768.41
2018-05-14T13:13:02.422Z,99755.72
2018-05-14T13:15:31.529Z,99765.70
2018-05-14T13:17:58.907Z,99764.43
2018-05-14T13:20:26.296Z,99761.81
2018-05-14T13:22:54.195Z,99758.20
2018-05-14T13:25:21.571Z,99749.22
2018-05-14T13:27:48.960Z,99744.91
2018-05-14T13:30:16.353Z,99749.70
2018-05-14T13:32:43.748Z,99754.54
2018-05-14T13:35:11.133Z,99757.98
2018-05-14T13:37:38.663Z,99784.07
2018-05-14T13:40:05.999Z,99777.72
2018-05-14T13:42:33.403Z,99778.72
2018-05-14T13:45:00.817Z,99795.37
2018-05-14T13:47:28.228Z,99856.95
2018-05-14T13:49:55.633Z,99942.67
2018-05-14T13:52:23.007Z,99916.50
2018-05-14T13:54:50.394Z,99866.48
2018-05-14T13:57:17.809Z,99847.50
2018-05-14T13:59:45.160Z,99840.27
2018-05-14T14:02:12.539Z,99840.02
2018-05-14T14:04:39.919Z,99828.14
2018-05-14T14:07:07.304Z,99824.30
2018-05-14T14:09:34.735Z,99821.50
2018-05-14T14:12:02.113Z,99817.56
2018-05-14T14:14:29.501Z,99814.64
2018-05-14T14:16:57.004Z,99812.42
2018-05-14T14:19:24.344Z,99812.48
2018-05-14T14:21:51.723Z,99800.88
2018-05-14T14:24:19.289Z,99798.62
2018-05-14T14:26:46.509Z,99810.64
2018-05-14T14:29:13.893Z,99809.10
2018-05-14T14:31:41.276Z,99809.30
2018-05-14T14:34:08.699Z,99807.25
2018-05-14T14:36:36.104Z,99820.47
2018-05-14T14:39:03.492Z,99818.34
2018-05-14T14:41:30.880Z,99825.63
2018-05-14T14:43:58.269Z,99821.05
2018-05-14T14:46:25.713Z,99816.84
2018-05-14T14:48:53.059Z,99816.73
2018-05-14T14:51:20.447Z,99835.25
2018-05-14T14:53:47.831Z,99836.89
2018-05-14T14:56:15.230Z,99833.42
2018-05-14T14:58:42.623Z,99828.88
2018-05-14T15:01:10.016Z,99841.91
2018-05-14T15:03:37.404Z,99856.35
2018-05-14T15:06:04.814Z,99854.16
2018-05-14T15:08:32.187Z,99797.47
2018-05-14T15:10:59.577Z,99805.31
2018-05-14T15:13:26.962Z,99812.41
2018-05-14T15:15:54.352Z,99828.36
2018-05-14T15:18:21.738Z,99826.75
2018-05-14T15:20:49.128Z,99823.66
2018-05-14T15:23:16.515Z,99820.28
2018-05-14T15:25:43.905Z,99817.34
2018-05-14T15:28:11.285Z,99821.07
2018-05-14T15:30:38.679Z,99821.48
2018-05-14T15:33:06.064Z,99816.16
2018-05-14T15:35:33.451Z,99819.28
2018-05-14T15:38:00.848Z,99815.55
2018-05-14T15:40:28.236Z,99814.28
2018-05-14T15:42:55.672Z,99809.22
2018-05-14T15:45:23.052Z,99818.75
2018-05-14T15:47:50.511Z,99818.27
2018-05-14T15:50:17.884Z,99821.84
2018-05-14T15:52:45.276Z,99822.16
2018-05-14T15:55:12.671Z,99821.85
2018-05-14T15:57:40.081Z,99818.98
2018-05-14T16:00:07.475Z,99822.16
2018-05-14T16:02:34.865Z,99820.69
2018-05-14T16:05:02.283Z,99818.71
2018-05-14T16:07:29.667Z,99820.02
2018-05-14T16:09:57.109Z,99821.03
2018-05-14T16:12:24.498Z,99820.86
2018-05-14T16:14:51.899Z,99822.67
2018-05-14T16:17:19.285Z,99821.08
2018-05-14T16:19:46.679Z,99813.94
2018-05-14T16:22:14.090Z,99809.75
2018-05-14T16:24:41.482Z,99811.83
2018-05-14T16:27:08.872Z,99809.23
2018-05-14T16:29:36.260Z,99808.53
2018-05-14T16:32:03.677Z,99809.23
2018-05-14T16:34:31.063Z,99813.45
2018-05-14T16:37:01.051Z,99812.91
2018-05-14T16:39:40.972Z,99814.41
2018-05-14T16:42:11.265Z,99820.53
2018-05-14T16:44:40.208Z,99822.27
2018-05-14T16:47:11.444Z,99814.97
2018-05-14T16:49:40.811Z,99813.17
2018-05-14T16:52:11.198Z,99816.72
2018-05-14T16:54:42.172Z,99815.63
2018-05-14T16:57:11.257Z,99810.19
2018-05-14T16:59:38.831Z,99817.22
2018-05-14T17:02:09.917Z,99810.66
2018-05-14T17:22:42.309Z,99817.40
2018-05-14T17:25:23.629Z,99820.80
2018-05-14T17:27:51.605Z,99823.48
2018-05-14T17:30:19.010Z,99822.74
2018-05-14T17:32:46.364Z,99829.95
2018-05-14T17:35:13.755Z,99830.29
2018-05-14T17:37:41.127Z,99824.54
2018-05-14T17:40:08.512Z,99830.74
2018-05-14T17:42:36.229Z,99823.37
2018-05-14T17:45:03.613Z,99824.11
2018-05-14T17:47:30.991Z,99832.40
2018-05-14T17:49:58.379Z,99834.80
2018-05-14T17:52:25.776Z,99839.33
2018-05-14T17:54:53.238Z,99825.60
2018-05-14T17:57:20.600Z,99839.22
2018-05-14T17:59:48.025Z,99844.67
2018-05-14T18:02:15.411Z,99843.66
2018-05-14T18:04:42.803Z,99844.77
2018-05-14T18:07:10.195Z,99846.13
2018-05-14T18:09:37.567Z,99848.16
2018-05-14T18:12:04.951Z,99857.08
2018-05-14T18:14:32.368Z,99851.20
2018-05-14T18:17:01.043Z,99851.89
2018-05-14T18:19:29.382Z,99855.14
2018-05-14T18:22:02.362Z,99855.98
2018-05-14T18:24:29.739Z,99855.87
2018-05-14T18:26:57.127Z,99858.35
2018-05-14T18:29:30.438Z,99869.91
2018-05-14T18:31:57.823Z,99865.06
2018-05-14T18:34:30.819Z,99869.82
2018-05-14T18:36:58.201Z,99878.05
2018-05-14T18:39:25.575Z,99874.27
2018-05-14T18:41:52.955Z,99879.15
2018-05-14T18:44:34.757Z,99887.02
2018-05-14T18:47:02.147Z,99884.06
2018-05-14T18:49:29.518Z,99888.04
2018-05-14T18:51:56.928Z,99895.68
2018-05-14T18:54:24.307Z,99895.97
2018-05-14T18:56:51.951Z,99901.44
2018-05-14T18:59:21.780Z,99910.19
2018-05-14T19:01:49.169Z,99912.30
2018-05-14T19:04:16.553Z,99914.63
2018-05-14T19:06:43.948Z,99917.31
2018-05-14T19:09:11.360Z,99915.58
2018-05-14T19:11:44.479Z,99925.22
2018-05-14T19:14:11.849Z,99930.67
2018-05-14T19:16:44.824Z,99935.59
2018-05-14T19:19:12.212Z,99941.60
2018-05-14T19:21:39.608Z,99932.23
2018-05-14T19:24:06.987Z,99940.27
2018-05-14T19:26:34.369Z,99948.02
2018-05-14T19:29:07.428Z,99950.23
2018-05-14T19:31:34.811Z,99960.86
2018-05-14T19:34:07.649Z,99958.39
2018-05-14T19:36:35.036Z,99967.91
2018-05-14T19:39:02.419Z,99969.97
2018-05-14T19:41:29.864Z,99974.05
2018-05-14T19:43:57.196Z,99978.02
2018-05-14T19:46:24.622Z,99983.59
2018-05-14T19:48:52.015Z,99986.33
2018-05-14T19:51:19.423Z,99983.33
2018-05-14T19:53:46.812Z,99989.98
2018-05-14T19:56:14.178Z,99988.89
2018-05-14T19:58:41.587Z,99998.67
2018-05-14T20:01:08.965Z,99993.08
2018-05-14T20:03:36.357Z,100002.20
2018-05-14T20:06:03.744Z,99997.70
2018-05-14T20:08:31.151Z,99999.31
2018-05-14T20:10:58.527Z,100006.09
2018-05-14T20:13:25.916Z,100008.80
2018-05-14T20:15:53.287Z,100011.65
2018-05-14T20:18:20.698Z,100014.25
2018-05-14T20:20:48.079Z,100020.74
2018-05-14T20:23:15.471Z,100019.91
2018-05-14T20:25:42.862Z,100019.37
2018-05-14T20:28:10.263Z,100017.72
2018-05-14T20:30:37.643Z,100028.98
2018-05-14T20:33:05.051Z,100025.69
2018-05-14T20:35:32.443Z,100032.19
2018-05-14T20:37:59.844Z,100029.00
2018-05-14T20:40:27.221Z,100038.47
2018-05-14T20:42:54.631Z,100042.95
2018-05-14T20:45:22.009Z,100040.23
2018-05-14T20:47:49.402Z,100045.39
2018-05-14T20:50:16.778Z,100048.05
2018-05-14T20:52:44.171Z,100048.16
2018-05-14T20:55:11.555Z,100053.69
2018-05-14T20:57:38.936Z,100059.28
2018-05-14T21:00:06.319Z,100059.17
2018-05-14T21:02:33.711Z,100066.53
2018-05-14T21:05:01.092Z,100061.57
2018-05-14T21:07:28.484Z,100058.83
2018-05-14T21:09:55.928Z,100060.27
2018-05-14T21:12:23.344Z,100064.22
2018-05-14T21:14:52.259Z,100064.16
2018-05-14T21:17:19.588Z,100063.44
2018-05-14T21:19:47.192Z,100067.00
2018-05-14T21:22:15.506Z,100068.80
2018-05-14T21:24:42.989Z,100067.02
2018-05-14T21:27:12.089Z,100069.73
2018-05-14T21:29:40.018Z,100066.48
2018-05-14T21:32:07.764Z,100069.58
2018-05-14T21:34:35.158Z,100069.70
2018-05-14T21:37:07.822Z,100072.23
2018-05-14T21:39:35.288Z,100075.89
2018-05-14T21:42:02.722Z,100079.71
2018-05-14T21:44:30.865Z,100075.30
2018-05-14T21:47:03.209Z,100081.55
2018-05-14T21:49:31.530Z,100083.39
2018-05-14T21:52:00.879Z,100086.72
2018-05-14T21:54:29.756Z,100089.76
2018-05-14T21:57:01.424Z,100095.97
2018-05-14T21:59:29.725Z,100094.67
2018-05-14T22:02:06.974Z,100092.34
2018-05-14T22:04:35.604Z,100095.39
2018-05-14T22:07:10.402Z,100100.73
2018-05-14T22:09:40.783Z,100096.79
2018-05-14T22:12:09.575Z,100093.25
2018-05-14T22:14:43.202Z,100099.28
2018-05-14T22:17:12.540Z,100098.30
2018-05-14T22:19:42.477Z,100094.68
2018-05-14T22:22:13.383Z,100099.53
2018-05-14T22:24:47.721Z,100101.22
2018-05-14T22:27:16.535Z,100108.63
2018-05-14T22:29:48.208Z,100105.95
2018-05-14T22:32:17.786Z,100102.69
2018-05-14T22:34:49.158Z,100107.69
2018-05-14T22:37:16.772Z,100106.86
2018-05-14T22:39:47.271Z,100104.97
2018-05-14T22:42:16.963Z,100097.84
2018-05-14T22:44:46.774Z,100101.30
2018-05-14T22:47:17.455Z,100105.70
2018-05-14T22:49:46.331Z,100101.28
2018-05-14T22:52:20.492Z,100105.14
2018-05-14T22:54:51.693Z,100103.18
2018-05-14T22:57:23.828Z,100099.16
2018-05-14T22:59:52.597Z,100099.88
2018-05-14T23:02:21.474Z,100095.60
2018-05-14T23:04:50.701Z,100100.72
2018-05-14T23:07:26.020Z,100093.72
2018-05-14T23:09:55.054Z,100094.44
2018-05-14T23:12:24.882Z,100090.40
2018-05-14T23:14:53.763Z,100097.59
2018-05-14T23:17:32.625Z,100083.62
2018-05-14T23:20:02.318Z,100085.45
2018-05-14T23:22:41.999Z,100080.45
2018-05-14T23:25:10.874Z,100075.52
2018-05-14T23:27:39.980Z,100076.80
2018-05-14T23:30:11.653Z,100082.48
2018-05-14T23:32:42.561Z,100086.03
2018-05-14T23:35:13.651Z,100088.84
2018-05-14T23:37:41.061Z,100083.53
2018-05-14T23:40:08.480Z,100078.61
2018-05-14T23:42:35.892Z,100085.01
2018-05-14T23:45:03.281Z,100084.21
2018-05-14T23:47:30.687Z,100080.41
2018-05-14T23:49:58.088Z,100079.92
2018-05-14T23:52:25.467Z,100085.55
2018-05-14T23:54:52.871Z,100089.69
2018-05-14T23:57:20.285Z,100080.17
2018-05-14T23:59:47.729Z,100077.95
